sensor_id;sensor_type;location;lat;lon;timestamp;P1;durP1;ratioP1;P2;durP2;ratioP2
10299;SDS011;5195;48.562;9.192;2022-07-29T00:00:15;6.03;;;5.63;;
10299;SDS011;5195;48.562;9.192;2022-07-29T00:02:40;5.73;;;5.43;;
10299;SDS011;5195;48.562;9.192;2022-07-29T00:05:07;5.50;;;5.20;;
10299;SDS011;5195;48.562;9.192;2022-07-29T00:07:33;5.57;;;5.27;;
10299;SDS011;5195;48.562;9.192;2022-07-29T00:10:01;6.30;;;5.90;;
10299;SDS011;5195;48.562;9.192;2022-07-29T00:12:27;6.27;;;5.77;;
10299;SDS011;5195;48.562;9.192;2022-07-29T00:14:53;5.87;;;5.57;;
10299;SDS011;5195;48.562;9.192;2022-07-29T00:17:18;6.17;;;5.80;;
10299;SDS011;5195;48.562;9.192;2022-07-29T00:19:43;5.90;;;5.50;;
10299;SDS011;5195;48.562;9.192;2022-07-29T00:22:10;6.30;;;5.93;;
10299;SDS011;5195;48.562;9.192;2022-07-29T00:24:35;5.73;;;5.23;;
10299;SDS011;5195;48.562;9.192;2022-07-29T00:27:01;6.30;;;6.00;;
10299;SDS011;5195;48.562;9.192;2022-07-29T00:29:26;5.53;;;5.23;;
10299;SDS011;5195;48.562;9.192;2022-07-29T00:31:52;5.30;;;5.00;;
10299;SDS011;5195;48.562;9.192;2022-07-29T00:34:17;5.50;;;5.20;;
10299;SDS011;5195;48.562;9.192;2022-07-29T00:37:03;5.30;;;5.00;;
10299;SDS011;5195;48.562;9.192;2022-07-29T00:39:29;5.20;;;4.80;;
10299;SDS011;5195;48.562;9.192;2022-07-29T00:41:55;5.63;;;5.30;;
10299;SDS011;5195;48.562;9.192;2022-07-29T00:44:21;5.60;;;5.30;;
10299;SDS011;5195;48.562;9.192;2022-07-29T00:46:47;5.03;;;4.73;;
10299;SDS011;5195;48.562;9.192;2022-07-29T00:49:12;5.55;;;5.15;;
10299;SDS011;5195;48.562;9.192;2022-07-29T00:51:38;4.97;;;4.57;;
10299;SDS011;5195;48.562;9.192;2022-07-29T00:54:06;6.10;;;5.70;;
10299;SDS011;5195;48.562;9.192;2022-07-29T00:56:32;6.18;;;5.82;;
10299;SDS011;5195;48.562;9.192;2022-07-29T00:58:57;5.78;;;5.40;;
10299;SDS011;5195;48.562;9.192;2022-07-29T01:01:22;5.50;;;5.20;;
10299;SDS011;5195;48.562;9.192;2022-07-29T01:03:48;6.07;;;5.67;;
10299;SDS011;5195;48.562;9.192;2022-07-29T01:06:14;4.83;;;4.53;;
10299;SDS011;5195;48.562;9.192;2022-07-29T01:08:39;5.70;;;5.30;;
10299;SDS011;5195;48.562;9.192;2022-07-29T01:11:04;5.65;;;5.30;;
10299;SDS011;5195;48.562;9.192;2022-07-29T01:13:30;5.47;;;5.18;;
10299;SDS011;5195;48.562;9.192;2022-07-29T01:15:56;5.10;;;4.80;;
10299;SDS011;5195;48.562;9.192;2022-07-29T01:18:34;5.00;;;4.63;;
10299;SDS011;5195;48.562;9.192;2022-07-29T01:23:54;5.40;;;5.10;;
10299;SDS011;5195;48.562;9.192;2022-07-29T01:29:15;5.30;;;4.90;;
10299;SDS011;5195;48.562;9.192;2022-07-29T01:32:05;5.63;;;5.23;;
10299;SDS011;5195;48.562;9.192;2022-07-29T01:34:54;5.80;;;5.40;;
10299;SDS011;5195;48.562;9.192;2022-07-29T01:39:43;5.40;;;5.00;;
10299;SDS011;5195;48.562;9.192;2022-07-29T01:47:17;4.97;;;4.60;;
10299;SDS011;5195;48.562;9.192;2022-07-29T01:49:43;5.33;;;4.93;;
10299;SDS011;5195;48.562;9.192;2022-07-29T01:52:07;5.10;;;4.63;;
10299;SDS011;5195;48.562;9.192;2022-07-29T01:57:12;5.93;;;5.53;;
10299;SDS011;5195;48.562;9.192;2022-07-29T01:59:37;5.60;;;5.30;;
10299;SDS011;5195;48.562;9.192;2022-07-29T02:02:04;6.20;;;5.80;;
10299;SDS011;5195;48.562;9.192;2022-07-29T02:04:29;6.20;;;5.80;;
10299;SDS011;5195;48.562;9.192;2022-07-29T02:06:57;5.77;;;5.37;;
10299;SDS011;5195;48.562;9.192;2022-07-29T02:09:21;5.05;;;4.75;;
10299;SDS011;5195;48.562;9.192;2022-07-29T02:11:51;5.60;;;5.20;;
10299;SDS011;5195;48.562;9.192;2022-07-29T02:14:15;6.10;;;5.70;;
10299;SDS011;5195;48.562;9.192;2022-07-29T02:16:40;5.80;;;5.40;;
10299;SDS011;5195;48.562;9.192;2022-07-29T02:19:06;5.27;;;4.97;;
10299;SDS011;5195;48.562;9.192;2022-07-29T02:21:31;5.78;;;5.37;;
10299;SDS011;5195;48.562;9.192;2022-07-29T02:23:58;6.13;;;5.63;;
10299;SDS011;5195;48.562;9.192;2022-07-29T02:26:24;5.70;;;5.30;;
10299;SDS011;5195;48.562;9.192;2022-07-29T02:28:49;5.50;;;5.03;;
10299;SDS011;5195;48.562;9.192;2022-07-29T02:31:14;5.90;;;5.50;;
10299;SDS011;5195;48.562;9.192;2022-07-29T02:33:40;5.00;;;4.70;;
10299;SDS011;5195;48.562;9.192;2022-07-29T02:36:06;5.23;;;4.97;;
10299;SDS011;5195;48.562;9.192;2022-07-29T02:38:31;6.07;;;5.67;;
10299;SDS011;5195;48.562;9.192;2022-07-29T02:41:17;5.93;;;5.57;;
10299;SDS011;5195;48.562;9.192;2022-07-29T02:43:43;5.90;;;5.47;;
10299;SDS011;5195;48.562;9.192;2022-07-29T02:46:11;5.30;;;5.10;;
10299;SDS011;5195;48.562;9.192;2022-07-29T02:48:36;6.27;;;5.73;;
10299;SDS011;5195;48.562;9.192;2022-07-29T02:51:07;5.43;;;4.87;;
10299;SDS011;5195;48.562;9.192;2022-07-29T02:53:31;5.50;;;5.20;;
10299;SDS011;5195;48.562;9.192;2022-07-29T02:56:08;5.37;;;5.10;;
10299;SDS011;5195;48.562;9.192;2022-07-29T02:58:33;5.37;;;5.13;;
10299;SDS011;5195;48.562;9.192;2022-07-29T03:01:06;5.90;;;5.60;;
10299;SDS011;5195;48.562;9.192;2022-07-29T03:03:37;5.60;;;5.30;;
10299;SDS011;5195;48.562;9.192;2022-07-29T03:06:02;5.50;;;5.20;;
10299;SDS011;5195;48.562;9.192;2022-07-29T03:08:28;5.80;;;5.50;;
10299;SDS011;5195;48.562;9.192;2022-07-29T03:10:53;6.17;;;5.77;;
10299;SDS011;5195;48.562;9.192;2022-07-29T03:13:19;6.23;;;5.40;;
10299;SDS011;5195;48.562;9.192;2022-07-29T03:15:44;6.20;;;5.80;;
10299;SDS011;5195;48.562;9.192;2022-07-29T03:18:11;6.50;;;6.10;;
10299;SDS011;5195;48.562;9.192;2022-07-29T03:20:37;6.63;;;6.23;;
10299;SDS011;5195;48.562;9.192;2022-07-29T03:23:03;6.50;;;6.20;;
10299;SDS011;5195;48.562;9.192;2022-07-29T03:25:29;6.50;;;6.10;;
10299;SDS011;5195;48.562;9.192;2022-07-29T03:27:55;6.30;;;6.00;;
10299;SDS011;5195;48.562;9.192;2022-07-29T03:30:20;6.28;;;5.82;;
10299;SDS011;5195;48.562;9.192;2022-07-29T03:32:46;6.30;;;5.80;;
10299;SDS011;5195;48.562;9.192;2022-07-29T03:35:11;5.20;;;4.90;;
10299;SDS011;5195;48.562;9.192;2022-07-29T03:37:37;5.60;;;5.30;;
10299;SDS011;5195;48.562;9.192;2022-07-29T03:40:03;5.77;;;5.47;;
10299;SDS011;5195;48.562;9.192;2022-07-29T03:42:30;4.70;;;4.50;;
10299;SDS011;5195;48.562;9.192;2022-07-29T03:44:54;5.60;;;5.30;;
10299;SDS011;5195;48.562;9.192;2022-07-29T03:47:22;5.77;;;5.30;;
10299;SDS011;5195;48.562;9.192;2022-07-29T03:49:46;6.17;;;5.77;;
10299;SDS011;5195;48.562;9.192;2022-07-29T03:52:12;5.27;;;4.97;;
10299;SDS011;5195;48.562;9.192;2022-07-29T03:54:38;5.47;;;5.23;;
10299;SDS011;5195;48.562;9.192;2022-07-29T03:57:04;5.68;;;5.30;;
10299;SDS011;5195;48.562;9.192;2022-07-29T03:59:29;5.37;;;5.07;;
10299;SDS011;5195;48.562;9.192;2022-07-29T04:01:55;5.27;;;4.87;;
10299;SDS011;5195;48.562;9.192;2022-07-29T04:04:21;5.32;;;5.03;;
10299;SDS011;5195;48.562;9.192;2022-07-29T04:06:48;5.50;;;5.20;;
10299;SDS011;5195;48.562;9.192;2022-07-29T04:09:14;5.15;;;4.95;;
10299;SDS011;5195;48.562;9.192;2022-07-29T04:11:39;5.37;;;5.00;;
10299;SDS011;5195;48.562;9.192;2022-07-29T04:14:05;5.03;;;4.83;;
10299;SDS011;5195;48.562;9.192;2022-07-29T04:16:31;4.93;;;4.62;;
10299;SDS011;5195;48.562;9.192;2022-07-29T04:18:57;4.60;;;4.40;;
10299;SDS011;5195;48.562;9.192;2022-07-29T04:21:22;5.13;;;4.80;;
10299;SDS011;5195;48.562;9.192;2022-07-29T04:23:49;5.53;;;5.23;;
10299;SDS011;5195;48.562;9.192;2022-07-29T04:26:16;5.70;;;5.40;;
10299;SDS011;5195;48.562;9.192;2022-07-29T04:28:41;5.83;;;5.43;;
10299;SDS011;5195;48.562;9.192;2022-07-29T04:31:07;5.43;;;5.03;;
10299;SDS011;5195;48.562;9.192;2022-07-29T04:33:32;6.18;;;5.68;;
10299;SDS011;5195;48.562;9.192;2022-07-29T04:35:58;6.20;;;5.80;;
10299;SDS011;5195;48.562;9.192;2022-07-29T04:38:24;5.72;;;5.43;;
10299;SDS011;5195;48.562;9.192;2022-07-29T04:40:50;4.83;;;4.60;;
10299;SDS011;5195;48.562;9.192;2022-07-29T04:43:15;5.50;;;5.20;;
10299;SDS011;5195;48.562;9.192;2022-07-29T04:45:41;5.45;;;5.25;;
10299;SDS011;5195;48.562;9.192;2022-07-29T04:48:06;5.55;;;5.25;;
10299;SDS011;5195;48.562;9.192;2022-07-29T04:50:34;5.50;;;5.10;;
10299;SDS011;5195;48.562;9.192;2022-07-29T04:52:59;4.57;;;4.37;;
10299;SDS011;5195;48.562;9.192;2022-07-29T04:55:25;5.18;;;4.80;;
10299;SDS011;5195;48.562;9.192;2022-07-29T04:57:50;4.83;;;4.63;;
10299;SDS011;5195;48.562;9.192;2022-07-29T05:00:18;4.80;;;4.60;;
10299;SDS011;5195;48.562;9.192;2022-07-29T05:02:43;4.77;;;4.37;;
10299;SDS011;5195;48.562;9.192;2022-07-29T05:05:10;4.60;;;4.30;;
10299;SDS011;5195;48.562;9.192;2022-07-29T05:07:38;4.60;;;4.30;;
10299;SDS011;5195;48.562;9.192;2022-07-29T05:10:03;4.20;;;4.00;;
10299;SDS011;5195;48.562;9.192;2022-07-29T05:12:29;4.50;;;4.30;;
10299;SDS011;5195;48.562;9.192;2022-07-29T05:14:54;4.33;;;3.97;;
10299;SDS011;5195;48.562;9.192;2022-07-29T05:17:20;3.80;;;3.60;;
10299;SDS011;5195;48.562;9.192;2022-07-29T05:19:49;3.67;;;3.40;;
10299;SDS011;5195;48.562;9.192;2022-07-29T05:22:14;3.50;;;3.30;;
10299;SDS011;5195;48.562;9.192;2022-07-29T05:24:40;3.80;;;3.50;;
10299;SDS011;5195;48.562;9.192;2022-07-29T05:27:05;3.53;;;3.33;;
10299;SDS011;5195;48.562;9.192;2022-07-29T05:29:32;3.30;;;3.10;;
10299;SDS011;5195;48.562;9.192;2022-07-29T05:31:58;3.47;;;3.27;;
10299;SDS011;5195;48.562;9.192;2022-07-29T05:34:25;3.60;;;3.40;;
10299;SDS011;5195;48.562;9.192;2022-07-29T05:36:53;3.10;;;3.00;;
10299;SDS011;5195;48.562;9.192;2022-07-29T05:39:18;4.23;;;2.90;;
10299;SDS011;5195;48.562;9.192;2022-07-29T05:41:44;3.30;;;3.20;;
10299;SDS011;5195;48.562;9.192;2022-07-29T05:44:11;3.37;;;3.20;;
10299;SDS011;5195;48.562;9.192;2022-07-29T05:46:36;3.00;;;2.80;;
10299;SDS011;5195;48.562;9.192;2022-07-29T05:49:02;2.80;;;2.70;;
10299;SDS011;5195;48.562;9.192;2022-07-29T05:51:27;2.73;;;2.60;;
10299;SDS011;5195;48.562;9.192;2022-07-29T05:53:53;2.90;;;2.80;;
10299;SDS011;5195;48.562;9.192;2022-07-29T05:56:18;3.67;;;3.57;;
10299;SDS011;5195;48.562;9.192;2022-07-29T05:58:46;4.00;;;3.70;;
10299;SDS011;5195;48.562;9.192;2022-07-29T06:01:11;4.07;;;3.87;;
10299;SDS011;5195;48.562;9.192;2022-07-29T06:03:36;3.70;;;3.50;;
10299;SDS011;5195;48.562;9.192;2022-07-29T06:06:02;4.40;;;4.20;;
10299;SDS011;5195;48.562;9.192;2022-07-29T06:08:27;3.75;;;3.65;;
10299;SDS011;5195;48.562;9.192;2022-07-29T06:10:54;4.37;;;3.93;;
10299;SDS011;5195;48.562;9.192;2022-07-29T06:13:19;4.40;;;4.20;;
10299;SDS011;5195;48.562;9.192;2022-07-29T06:15:45;4.33;;;4.03;;
10299;SDS011;5195;48.562;9.192;2022-07-29T06:18:11;4.07;;;3.80;;
10299;SDS011;5195;48.562;9.192;2022-07-29T06:20:37;3.93;;;3.60;;
10299;SDS011;5195;48.562;9.192;2022-07-29T06:23:02;3.55;;;3.35;;
10299;SDS011;5195;48.562;9.192;2022-07-29T06:25:30;3.40;;;3.20;;
10299;SDS011;5195;48.562;9.192;2022-07-29T06:27:57;3.70;;;3.40;;
10299;SDS011;5195;48.562;9.192;2022-07-29T06:30:22;3.60;;;3.30;;
10299;SDS011;5195;48.562;9.192;2022-07-29T06:32:48;3.00;;;2.90;;
10299;SDS011;5195;48.562;9.192;2022-07-29T06:35:14;3.83;;;3.20;;
10299;SDS011;5195;48.562;9.192;2022-07-29T06:37:40;3.60;;;3.40;;
10299;SDS011;5195;48.562;9.192;2022-07-29T06:40:05;5.57;;;3.50;;
10299;SDS011;5195;48.562;9.192;2022-07-29T06:42:51;3.03;;;2.83;;
10299;SDS011;5195;48.562;9.192;2022-07-29T06:45:16;3.73;;;3.40;;
10299;SDS011;5195;48.562;9.192;2022-07-29T06:47:42;3.70;;;3.40;;
10299;SDS011;5195;48.562;9.192;2022-07-29T06:50:08;3.70;;;3.50;;
10299;SDS011;5195;48.562;9.192;2022-07-29T06:52:33;3.83;;;3.60;;
10299;SDS011;5195;48.562;9.192;2022-07-29T06:54:59;3.70;;;3.47;;
10299;SDS011;5195;48.562;9.192;2022-07-29T06:57:25;3.87;;;3.67;;
10299;SDS011;5195;48.562;9.192;2022-07-29T06:59:51;3.73;;;3.43;;
10299;SDS011;5195;48.562;9.192;2022-07-29T07:02:16;4.13;;;3.47;;
10299;SDS011;5195;48.562;9.192;2022-07-29T07:04:43;4.97;;;3.60;;
10299;SDS011;5195;48.562;9.192;2022-07-29T07:07:08;3.37;;;3.10;;
10299;SDS011;5195;48.562;9.192;2022-07-29T07:09:34;3.40;;;3.20;;
10299;SDS011;5195;48.562;9.192;2022-07-29T07:12:00;3.85;;;3.50;;
10299;SDS011;5195;48.562;9.192;2022-07-29T07:14:26;4.33;;;3.67;;
10299;SDS011;5195;48.562;9.192;2022-07-29T07:16:52;3.90;;;3.70;;
10299;SDS011;5195;48.562;9.192;2022-07-29T07:19:18;3.93;;;3.63;;
10299;SDS011;5195;48.562;9.192;2022-07-29T07:21:43;4.20;;;3.78;;
10299;SDS011;5195;48.562;9.192;2022-07-29T07:24:09;3.83;;;3.47;;
10299;SDS011;5195;48.562;9.192;2022-07-29T07:26:34;3.80;;;3.60;;
10299;SDS011;5195;48.562;9.192;2022-07-29T07:29:00;4.33;;;3.83;;
10299;SDS011;5195;48.562;9.192;2022-07-29T07:31:25;5.35;;;3.90;;
10299;SDS011;5195;48.562;9.192;2022-07-29T07:33:51;3.65;;;3.45;;
10299;SDS011;5195;48.562;9.192;2022-07-29T07:36:17;3.80;;;3.60;;
10299;SDS011;5195;48.562;9.192;2022-07-29T07:38:42;4.00;;;3.70;;
10299;SDS011;5195;48.562;9.192;2022-07-29T07:41:08;3.75;;;3.55;;
10299;SDS011;5195;48.562;9.192;2022-07-29T07:43:33;3.47;;;3.27;;
10299;SDS011;5195;48.562;9.192;2022-07-29T07:46:02;3.40;;;3.20;;
10299;SDS011;5195;48.562;9.192;2022-07-29T07:48:29;3.80;;;3.50;;
10299;SDS011;5195;48.562;9.192;2022-07-29T07:50:54;3.50;;;3.20;;
10299;SDS011;5195;48.562;9.192;2022-07-29T07:53:20;3.67;;;3.43;;
10299;SDS011;5195;48.562;9.192;2022-07-29T07:55:45;3.90;;;3.60;;
10299;SDS011;5195;48.562;9.192;2022-07-29T07:58:11;3.43;;;3.23;;
10299;SDS011;5195;48.562;9.192;2022-07-29T08:00:37;3.63;;;3.33;;
10299;SDS011;5195;48.562;9.192;2022-07-29T08:03:02;3.80;;;3.60;;
10299;SDS011;5195;48.562;9.192;2022-07-29T08:05:28;3.57;;;3.37;;
10299;SDS011;5195;48.562;9.192;2022-07-29T08:07:53;3.78;;;3.47;;
10299;SDS011;5195;48.562;9.192;2022-07-29T08:10:20;3.43;;;3.13;;
10299;SDS011;5195;48.562;9.192;2022-07-29T08:13:06;3.07;;;2.90;;
10299;SDS011;5195;48.562;9.192;2022-07-29T08:15:31;3.80;;;3.53;;
10299;SDS011;5195;48.562;9.192;2022-07-29T08:17:58;4.00;;;3.77;;
10299;SDS011;5195;48.562;9.192;2022-07-29T08:20:24;3.97;;;3.67;;
10299;SDS011;5195;48.562;9.192;2022-07-29T08:22:51;3.80;;;3.60;;
10299;SDS011;5195;48.562;9.192;2022-07-29T08:25:16;3.50;;;3.20;;
10299;SDS011;5195;48.562;9.192;2022-07-29T08:27:42;3.87;;;3.47;;
10299;SDS011;5195;48.562;9.192;2022-07-29T08:30:08;5.50;;;3.37;;
10299;SDS011;5195;48.562;9.192;2022-07-29T08:32:37;3.63;;;3.33;;
10299;SDS011;5195;48.562;9.192;2022-07-29T08:35:02;4.47;;;3.72;;
10299;SDS011;5195;48.562;9.192;2022-07-29T08:37:28;4.05;;;3.75;;
10299;SDS011;5195;48.562;9.192;2022-07-29T08:39:54;3.70;;;3.40;;
10299;SDS011;5195;48.562;9.192;2022-07-29T08:42:19;4.10;;;3.80;;
10299;SDS011;5195;48.562;9.192;2022-07-29T08:44:47;5.83;;;3.53;;
10299;SDS011;5195;48.562;9.192;2022-07-29T08:47:15;4.05;;;3.75;;
10299;SDS011;5195;48.562;9.192;2022-07-29T08:49:41;6.13;;;3.57;;
10299;SDS011;5195;48.562;9.192;2022-07-29T08:52:06;4.23;;;3.80;;
10299;SDS011;5195;48.562;9.192;2022-07-29T08:54:32;4.07;;;3.37;;
10299;SDS011;5195;48.562;9.192;2022-07-29T08:56:59;4.12;;;3.80;;
10299;SDS011;5195;48.562;9.192;2022-07-29T08:59:25;4.50;;;4.20;;
10299;SDS011;5195;48.562;9.192;2022-07-29T09:01:50;3.70;;;3.40;;
10299;SDS011;5195;48.562;9.192;2022-07-29T09:04:15;3.97;;;3.67;;
10299;SDS011;5195;48.562;9.192;2022-07-29T09:06:43;5.47;;;3.77;;
10299;SDS011;5195;48.562;9.192;2022-07-29T09:09:07;4.60;;;4.20;;
10299;SDS011;5195;48.562;9.192;2022-07-29T09:11:33;3.93;;;3.63;;
10299;SDS011;5195;48.562;9.192;2022-07-29T09:13:58;5.00;;;3.80;;
10299;SDS011;5195;48.562;9.192;2022-07-29T09:16:25;5.10;;;4.15;;
10299;SDS011;5195;48.562;9.192;2022-07-29T09:18:50;4.20;;;3.90;;
10299;SDS011;5195;48.562;9.192;2022-07-29T09:21:17;4.23;;;4.00;;
10299;SDS011;5195;48.562;9.192;2022-07-29T09:24:09;4.63;;;4.13;;
10299;SDS011;5195;48.562;9.192;2022-07-29T09:26:36;4.80;;;4.40;;
10299;SDS011;5195;48.562;9.192;2022-07-29T09:29:08;4.22;;;3.92;;
10299;SDS011;5195;48.562;9.192;2022-07-29T09:31:33;4.10;;;3.80;;
10299;SDS011;5195;48.562;9.192;2022-07-29T09:33:58;4.47;;;4.10;;
10299;SDS011;5195;48.562;9.192;2022-07-29T09:36:25;4.40;;;4.07;;
10299;SDS011;5195;48.562;9.192;2022-07-29T09:38:59;4.47;;;4.23;;
10299;SDS011;5195;48.562;9.192;2022-07-29T09:41:24;4.30;;;3.90;;
10299;SDS011;5195;48.562;9.192;2022-07-29T09:43:56;4.33;;;4.03;;
10299;SDS011;5195;48.562;9.192;2022-07-29T09:46:20;4.67;;;4.37;;
10299;SDS011;5195;48.562;9.192;2022-07-29T09:48:45;4.60;;;4.20;;
10299;SDS011;5195;48.562;9.192;2022-07-29T09:51:18;5.00;;;4.50;;
10299;SDS011;5195;48.562;9.192;2022-07-29T09:53:43;4.57;;;3.93;;
10299;SDS011;5195;48.562;9.192;2022-07-29T09:56:09;4.17;;;3.87;;
10299;SDS011;5195;48.562;9.192;2022-07-29T09:58:35;4.87;;;3.87;;
10299;SDS011;5195;48.562;9.192;2022-07-29T10:01:02;4.37;;;4.00;;
10299;SDS011;5195;48.562;9.192;2022-07-29T10:03:28;4.40;;;4.10;;
10299;SDS011;5195;48.562;9.192;2022-07-29T10:06:05;4.90;;;4.50;;
10299;SDS011;5195;48.562;9.192;2022-07-29T10:08:30;4.57;;;4.27;;
10299;SDS011;5195;48.562;9.192;2022-07-29T10:11:03;4.43;;;3.90;;
10299;SDS011;5195;48.562;9.192;2022-07-29T10:13:21;4.57;;;4.20;;
10299;SDS011;5195;48.562;9.192;2022-07-29T10:15:47;4.33;;;4.03;;
10299;SDS011;5195;48.562;9.192;2022-07-29T10:18:13;5.70;;;3.83;;
10299;SDS011;5195;48.562;9.192;2022-07-29T10:20:39;4.32;;;4.00;;
10299;SDS011;5195;48.562;9.192;2022-07-29T10:23:04;5.83;;;4.20;;
10299;SDS011;5195;48.562;9.192;2022-07-29T10:25:30;4.20;;;3.90;;
10299;SDS011;5195;48.562;9.192;2022-07-29T10:27:55;4.13;;;3.83;;
10299;SDS011;5195;48.562;9.192;2022-07-29T10:30:21;4.30;;;3.90;;
10299;SDS011;5195;48.562;9.192;2022-07-29T10:39:26;4.30;;;4.00;;
10299;SDS011;5195;48.562;9.192;2022-07-29T10:41:39;5.43;;;4.63;;
10299;SDS011;5195;48.562;9.192;2022-07-29T10:44:13;3.92;;;3.60;;
10299;SDS011;5195;48.562;9.192;2022-07-29T10:46:37;4.45;;;4.18;;
10299;SDS011;5195;48.562;9.192;2022-07-29T10:54:40;4.20;;;3.80;;
10299;SDS011;5195;48.562;9.192;2022-07-29T10:57:25;4.10;;;3.80;;
10299;SDS011;5195;48.562;9.192;2022-07-29T11:05:03;4.10;;;3.77;;
10299;SDS011;5195;48.562;9.192;2022-07-29T11:07:26;3.90;;;3.60;;
10299;SDS011;5195;48.562;9.192;2022-07-29T11:15:09;5.47;;;3.87;;
10299;SDS011;5195;48.562;9.192;2022-07-29T11:20:34;5.90;;;3.77;;
10299;SDS011;5195;48.562;9.192;2022-07-29T11:28:34;4.30;;;3.73;;
10299;SDS011;5195;48.562;9.192;2022-07-29T11:31:01;5.13;;;3.83;;
10299;SDS011;5195;48.562;9.192;2022-07-29T11:33:27;4.23;;;3.80;;
10299;SDS011;5195;48.562;9.192;2022-07-29T11:36:16;4.57;;;3.80;;
10299;SDS011;5195;48.562;9.192;2022-07-29T11:38:36;3.67;;;3.30;;
10299;SDS011;5195;48.562;9.192;2022-07-29T11:41:19;3.50;;;3.10;;
10299;SDS011;5195;48.562;9.192;2022-07-29T11:43:48;3.50;;;3.30;;
10299;SDS011;5195;48.562;9.192;2022-07-29T11:46:14;3.55;;;3.35;;
10299;SDS011;5195;48.562;9.192;2022-07-29T11:48:42;4.13;;;3.60;;
10299;SDS011;5195;48.562;9.192;2022-07-29T11:51:09;5.63;;;3.80;;
10299;SDS011;5195;48.562;9.192;2022-07-29T11:53:34;4.27;;;3.97;;
10299;SDS011;5195;48.562;9.192;2022-07-29T11:56:00;4.27;;;3.87;;
10299;SDS011;5195;48.562;9.192;2022-07-29T11:58:25;4.12;;;3.72;;
10299;SDS011;5195;48.562;9.192;2022-07-29T12:00:51;4.83;;;4.23;;
10299;SDS011;5195;48.562;9.192;2022-07-29T12:03:23;4.87;;;4.07;;
10299;SDS011;5195;48.562;9.192;2022-07-29T12:05:43;5.00;;;4.50;;
10299;SDS011;5195;48.562;9.192;2022-07-29T12:08:16;4.63;;;4.23;;
10299;SDS011;5195;48.562;9.192;2022-07-29T12:10:40;5.18;;;4.80;;
10299;SDS011;5195;48.562;9.192;2022-07-29T12:13:06;4.60;;;4.30;;
10299;SDS011;5195;48.562;9.192;2022-07-29T12:15:31;6.17;;;4.50;;
10299;SDS011;5195;48.562;9.192;2022-07-29T12:17:57;5.10;;;4.70;;
10299;SDS011;5195;48.562;9.192;2022-07-29T12:20:28;4.70;;;4.40;;
10299;SDS011;5195;48.562;9.192;2022-07-29T12:22:49;4.50;;;4.20;;
10299;SDS011;5195;48.562;9.192;2022-07-29T12:25:15;4.63;;;3.40;;
10299;SDS011;5195;48.562;9.192;2022-07-29T12:27:40;4.10;;;3.80;;
10299;SDS011;5195;48.562;9.192;2022-07-29T12:30:07;3.90;;;3.60;;
10299;SDS011;5195;48.562;9.192;2022-07-29T12:32:32;3.70;;;3.50;;
10299;SDS011;5195;48.562;9.192;2022-07-29T12:35:36;3.43;;;3.23;;
10299;SDS011;5195;48.562;9.192;2022-07-29T12:37:33;3.17;;;2.97;;
10299;SDS011;5195;48.562;9.192;2022-07-29T12:39:58;3.50;;;3.30;;
10299;SDS011;5195;48.562;9.192;2022-07-29T12:42:24;3.40;;;3.17;;
10299;SDS011;5195;48.562;9.192;2022-07-29T12:44:50;3.40;;;3.20;;
10299;SDS011;5195;48.562;9.192;2022-07-29T12:47:15;3.60;;;3.30;;
10299;SDS011;5195;48.562;9.192;2022-07-29T12:49:41;3.20;;;3.00;;
10299;SDS011;5195;48.562;9.192;2022-07-29T12:54:56;3.03;;;2.93;;
10299;SDS011;5195;48.562;9.192;2022-07-29T12:57:21;3.80;;;3.60;;
10299;SDS011;5195;48.562;9.192;2022-07-29T13:02:38;3.78;;;3.35;;
10299;SDS011;5195;48.562;9.192;2022-07-29T13:05:04;3.43;;;3.27;;
10299;SDS011;5195;48.562;9.192;2022-07-29T13:07:31;3.53;;;3.33;;
10299;SDS011;5195;48.562;9.192;2022-07-29T13:10:11;3.40;;;3.20;;
10299;SDS011;5195;48.562;9.192;2022-07-29T13:12:36;3.40;;;3.20;;
10299;SDS011;5195;48.562;9.192;2022-07-29T13:15:11;3.70;;;3.40;;
10299;SDS011;5195;48.562;9.192;2022-07-29T13:17:27;3.63;;;3.33;;
10299;SDS011;5195;48.562;9.192;2022-07-29T13:20:06;5.07;;;3.40;;
10299;SDS011;5195;48.562;9.192;2022-07-29T13:22:21;3.37;;;3.17;;
10299;SDS011;5195;48.562;9.192;2022-07-29T13:27:21;3.80;;;3.50;;
10299;SDS011;5195;48.562;9.192;2022-07-29T13:29:45;3.50;;;3.27;;
10299;SDS011;5195;48.562;9.192;2022-07-29T13:32:12;8.47;;;4.77;;
10299;SDS011;5195;48.562;9.192;2022-07-29T13:34:39;8.40;;;4.30;;
10299;SDS011;5195;48.562;9.192;2022-07-29T13:37:04;5.83;;;5.10;;
10299;SDS011;5195;48.562;9.192;2022-07-29T13:39:30;5.35;;;4.85;;
10299;SDS011;5195;48.562;9.192;2022-07-29T13:41:55;5.37;;;4.87;;
10299;SDS011;5195;48.562;9.192;2022-07-29T13:44:21;4.70;;;4.30;;
10299;SDS011;5195;48.562;9.192;2022-07-29T13:46:46;4.83;;;4.43;;
10299;SDS011;5195;48.562;9.192;2022-07-29T13:49:12;5.20;;;4.70;;
10299;SDS011;5195;48.562;9.192;2022-07-29T13:51:39;4.70;;;4.37;;
10299;SDS011;5195;48.562;9.192;2022-07-29T13:54:06;4.87;;;4.47;;
10299;SDS011;5195;48.562;9.192;2022-07-29T13:56:31;4.40;;;3.80;;
10299;SDS011;5195;48.562;9.192;2022-07-29T13:58:57;5.28;;;4.78;;
10299;SDS011;5195;48.562;9.192;2022-07-29T14:01:23;5.07;;;4.47;;
10299;SDS011;5195;48.562;9.192;2022-07-29T14:03:48;4.47;;;4.00;;
10299;SDS011;5195;48.562;9.192;2022-07-29T14:06:14;4.50;;;4.30;;
10299;SDS011;5195;48.562;9.192;2022-07-29T14:08:39;3.95;;;3.75;;
10299;SDS011;5195;48.562;9.192;2022-07-29T14:11:06;3.78;;;3.47;;
10299;SDS011;5195;48.562;9.192;2022-07-29T14:13:31;3.73;;;3.53;;
10299;SDS011;5195;48.562;9.192;2022-07-29T14:15:57;3.72;;;3.50;;
10299;SDS011;5195;48.562;9.192;2022-07-29T14:18:23;4.10;;;3.73;;
10299;SDS011;5195;48.562;9.192;2022-07-29T14:20:49;4.43;;;3.90;;
10299;SDS011;5195;48.562;9.192;2022-07-29T14:23:15;5.40;;;5.00;;
10299;SDS011;5195;48.562;9.192;2022-07-29T14:25:41;4.50;;;4.17;;
10299;SDS011;5195;48.562;9.192;2022-07-29T14:28:07;5.00;;;4.55;;
10299;SDS011;5195;48.562;9.192;2022-07-29T14:30:33;4.43;;;4.10;;
10299;SDS011;5195;48.562;9.192;2022-07-29T14:32:58;4.57;;;4.28;;
10299;SDS011;5195;48.562;9.192;2022-07-29T14:35:24;4.60;;;4.30;;
10299;SDS011;5195;48.562;9.192;2022-07-29T14:37:49;4.50;;;4.20;;
10299;SDS011;5195;48.562;9.192;2022-07-29T14:40:15;4.00;;;3.70;;
10299;SDS011;5195;48.562;9.192;2022-07-29T14:42:40;4.80;;;4.40;;
10299;SDS011;5195;48.562;9.192;2022-07-29T14:45:06;4.30;;;4.00;;
10299;SDS011;5195;48.562;9.192;2022-07-29T14:47:32;4.30;;;4.00;;
10299;SDS011;5195;48.562;9.192;2022-07-29T14:49:57;5.05;;;4.45;;
10299;SDS011;5195;48.562;9.192;2022-07-29T14:52:23;5.37;;;4.87;;
10299;SDS011;5195;48.562;9.192;2022-07-29T14:54:48;4.57;;;4.27;;
10299;SDS011;5195;48.562;9.192;2022-07-29T14:57:14;4.70;;;4.30;;
10299;SDS011;5195;48.562;9.192;2022-07-29T14:59:41;4.60;;;4.27;;
10299;SDS011;5195;48.562;9.192;2022-07-29T15:02:06;5.57;;;3.70;;
10299;SDS011;5195;48.562;9.192;2022-07-29T15:04:33;4.30;;;4.00;;
10299;SDS011;5195;48.562;9.192;2022-07-29T15:06:58;4.10;;;3.80;;
10299;SDS011;5195;48.562;9.192;2022-07-29T15:09:24;3.77;;;3.57;;
10299;SDS011;5195;48.562;9.192;2022-07-29T15:11:50;4.03;;;3.67;;
10299;SDS011;5195;48.562;9.192;2022-07-29T15:14:16;4.30;;;4.00;;
10299;SDS011;5195;48.562;9.192;2022-07-29T15:16:43;4.20;;;3.90;;
10299;SDS011;5195;48.562;9.192;2022-07-29T15:19:09;4.07;;;3.60;;
10299;SDS011;5195;48.562;9.192;2022-07-29T15:21:35;3.80;;;3.60;;
10299;SDS011;5195;48.562;9.192;2022-07-29T15:24:00;3.87;;;3.57;;
10299;SDS011;5195;48.562;9.192;2022-07-29T15:26:26;4.10;;;3.80;;
10299;SDS011;5195;48.562;9.192;2022-07-29T15:28:51;3.80;;;3.60;;
10299;SDS011;5195;48.562;9.192;2022-07-29T15:31:17;3.78;;;3.58;;
10299;SDS011;5195;48.562;9.192;2022-07-29T15:33:42;3.67;;;3.37;;
10299;SDS011;5195;48.562;9.192;2022-07-29T15:36:08;4.20;;;4.00;;
10299;SDS011;5195;48.562;9.192;2022-07-29T15:38:33;3.93;;;3.73;;
10299;SDS011;5195;48.562;9.192;2022-07-29T15:41:01;3.60;;;3.40;;
10299;SDS011;5195;48.562;9.192;2022-07-29T15:43:26;4.40;;;4.00;;
10299;SDS011;5195;48.562;9.192;2022-07-29T15:45:52;4.25;;;3.95;;
10299;SDS011;5195;48.562;9.192;2022-07-29T15:48:37;3.90;;;3.70;;
10299;SDS011;5195;48.562;9.192;2022-07-29T15:51:03;3.80;;;3.50;;